Time,TemperatureF,DewpointF,PressureIn,WindDirection,WindDirectionDegrees,WindSpeedMPH,WindSpeedGustMPH,Humidity,HourlyPrecipIn,Conditions,Clouds,dailyrainin,SoftwareType,DateUTC
2013-01-25 07:00:00,19.6,12.6,30.45,North,0,0.0,0.0,74,0.00,,,0.00,WUHU216HW,2013-01-25 13:00:00,
2013-01-25 07:05:00,19.6,12.9,30.44,North,0,0.0,0.0,75,0.00,,,0.00,WUHU216HW,2013-01-25 13:05:00,
2013-01-25 07:10:00,19.6,12.9,30.44,North,0,0.0,0.0,75,0.00,,,0.00,WUHU216HW,2013-01-25 13:10:00,
2013-01-25 07:15:00,19.6,12.9,30.44,North,0,0.0,0.0,75,0.00,,,0.00,WUHU216HW,2013-01-25 13:15:00,
2013-01-25 07:20:00,19.6,12.9,30.44,North,0,0.0,0.0,75,0.00,,,0.00,WUHU216HW,2013-01-25 13:20:00,
2013-01-25 07:25:00,19.6,12.9,30.43,North,0,0.0,0.0,75,0.00,,,0.00,WUHU216HW,2013-01-25 13:25:00,
2013-01-25 07:30:00,19.6,12.9,30.43,North,0,0.0,0.0,75,0.00,,,0.00,WUHU216HW,2013-01-25 13:30:00,
2013-01-25 07:35:00,19.8,13.1,30.43,North,0,0.0,0.0,75,0.00,,,0.00,WUHU216HW,2013-01-25 13:35:00,
2013-01-25 07:40:00,19.8,13.1,30.43,North,0,0.0,0.0,75,0.00,,,0.00,WUHU216HW,2013-01-25 13:40:00,
2013-01-25 07:45:00,20.0,13.2,30.43,North,0,0.0,0.0,75,0.00,,,0.00,WUHU216HW,2013-01-25 13:45:00,
2013-01-25 07:50:00,20.2,13.4,30.43,North,0,0.0,0.0,75,0.00,,,0.00,WUHU216HW,2013-01-25 13:50:00,
2013-01-25 07:55:00,20.3,13.6,30.43,North,0,0.0,0.0,75,0.00,,,0.00,WUHU216HW,2013-01-25 13:55:00,
2013-01-25 08:00:00,20.5,13.8,30.42,North,0,0.0,0.0,75,0.00,,,0.00,WUHU216HW,2013-01-25 14:00:00,
2013-01-25 08:05:00,20.7,14.0,30.42,North,0,0.0,0.0,75,0.00,,,0.00,WUHU216HW,2013-01-25 14:05:00,
2013-01-25 08:10:00,20.9,14.1,30.42,North,0,0.0,0.0,75,0.00,,,0.00,WUHU216HW,2013-01-25 14:10:00,
2013-01-25 08:15:00,21.2,14.5,30.42,North,0,0.0,0.0,75,0.00,,,0.00,WUHU216HW,2013-01-25 14:15:00,
2013-01-25 08:20:00,21.4,14.9,30.42,North,0,0.0,0.0,76,0.00,,,0.00,WUHU216HW,2013-01-25 14:20:00,
2013-01-25 08:25:00,21.6,15.1,30.42,North,0,0.0,0.0,76,0.00,,,0.00,WUHU216HW,2013-01-25 14:25:00,
2013-01-25 08:30:00,22.0,15.5,30.42,North,0,0.0,0.0,76,0.00,,,0.00,WUHU216HW,2013-01-25 14:30:00,
2013-01-25 08:35:00,22.1,15.7,30.42,North,0,0.0,0.0,76,0.00,,,0.00,WUHU216HW,2013-01-25 14:35:00,
2013-01-25 08:40:00,22.3,15.6,30.42,North,0,0.0,0.0,75,0.00,,,0.00,WUHU216HW,2013-01-25 14:40:00,
2013-01-25 08:45:00,22.5,15.8,30.42,North,0,0.0,0.0,75,0.00,,,0.00,WUHU216HW,2013-01-25 14:45:00,
2013-01-25 08:50:00,22.7,15.9,30.42,North,0,0.0,0.0,75,0.00,,,0.00,WUHU216HW,2013-01-25 14:50:00,
2013-01-25 08:55:00,23.0,16.3,30.42,North,0,0.0,0.0,75,0.00,,,0.00,WUHU216HW,2013-01-25 14:55:00,
2013-01-25 09:00:00,23.2,16.5,30.42,North,0,0.0,0.0,75,0.00,,,0.00,WUHU216HW,2013-01-25 15:00:00,
2013-01-25 09:05:00,23.4,16.3,30.42,North,0,0.0,0.0,74,0.00,,,0.00,WUHU216HW,2013-01-25 15:05:00,
2013-01-25 09:10:00,23.8,17.0,30.42,North,0,0.0,0.0,75,0.00,,,0.00,WUHU216HW,2013-01-25 15:10:00,
2013-01-25 09:15:00,24.1,17.0,30.42,North,0,0.0,0.0,74,0.00,,,0.00,WUHU216HW,2013-01-25 15:15:00,
2013-01-25 09:20:00,24.5,17.4,30.41,North,0,0.0,0.0,74,0.00,,,0.00,WUHU216HW,2013-01-25 15:20:00,
2013-01-25 09:25:00,24.8,17.4,30.41,North,0,0.0,0.0,73,0.00,,,0.00,WUHU216HW,2013-01-25 15:25:00,
2013-01-25 09:30:00,25.0,17.2,30.41,North,0,0.0,0.0,72,0.00,,,0.00,WUHU216HW,2013-01-25 15:30:00,
2013-01-25 09:35:00,25.4,17.6,30.41,North,0,0.0,0.0,72,0.00,,,0.00,WUHU216HW,2013-01-25 15:35:00,
2013-01-25 09:40:00,25.7,17.9,30.40,North,0,0.0,0.0,72,0.00,,,0.00,WUHU216HW,2013-01-25 15:40:00,
2013-01-25 09:45:00,26.1,18.3,30.40,North,0,0.0,0.0,72,0.00,,,0.00,WUHU216HW,2013-01-25 15:45:00,
2013-01-25 09:50:00,26.3,18.1,30.40,North,0,0.0,0.0,71,0.00,,,0.00,WUHU216HW,2013-01-25 15:50:00,
2013-01-25 09:55:00,26.5,18.3,30.40,North,0,0.0,0.0,71,0.00,,,0.00,WUHU216HW,2013-01-25 15:55:00,
2013-01-25 10:00:00,27.0,18.5,30.40,North,0,0.0,0.0,70,0.00,,,0.00,WUHU216HW,2013-01-25 16:00:00,
2013-01-25 10:05:00,27.0,18.5,30.40,North,0,0.0,0.0,70,0.00,,,0.00,WUHU216HW,2013-01-25 16:05:00,
2013-01-25 10:10:00,27.0,18.5,30.40,North,0,0.0,0.0,70,0.00,,,0.00,WUHU216HW,2013-01-25 16:10:00,
2013-01-25 10:15:00,26.8,18.0,30.40,North,0,0.0,0.0,69,0.00,,,0.00,WUHU216HW,2013-01-25 16:15:00,
2013-01-25 10:20:00,26.6,17.8,30.40,North,0,0.0,0.0,69,0.00,,,0.00,WUHU216HW,2013-01-25 16:20:00,
2013-01-25 10:25:00,26.6,17.8,30.40,North,0,0.0,0.0,69,0.00,,,0.00,WUHU216HW,2013-01-25 16:25:00,
2013-01-25 10:30:00,26.8,18.0,30.40,North,0,0.0,0.0,69,0.00,,,0.00,WUHU216HW,2013-01-25 16:30:00,
2013-01-25 10:35:00,27.0,17.5,30.40,North,0,0.0,0.0,67,0.00,,,0.00,WUHU216HW,2013-01-25 16:35:00,
2013-01-25 10:40:00,27.0,17.8,30.40,North,0,0.0,0.0,68,0.00,,,0.00,WUHU216HW,2013-01-25 16:40:00,
2013-01-25 10:45:00,27.2,18.0,30.40,North,0,0.0,0.0,68,0.00,,,0.00,WUHU216HW,2013-01-25 16:45:00,
2013-01-25 10:50:00,27.4,18.2,30.40,North,0,0.0,0.0,68,0.00,,,0.00,WUHU216HW,2013-01-25 16:50:00,
2013-01-25 10:55:00,27.4,17.8,30.39,North,0,0.0,0.0,67,0.00,,,0.00,WUHU216HW,2013-01-25 16:55:00,
2013-01-25 11:00:00,27.5,18.4,30.39,North,0,0.0,0.0,68,0.00,,,0.00,WUHU216HW,2013-01-25 17:00:00,
2013-01-25 11:05:00,27.9,18.4,30.39,North,0,0.0,0.0,67,0.00,,,0.00,WUHU216HW,2013-01-25 17:05:00,
2013-01-25 11:10:00,27.9,18.4,30.38,North,0,0.0,0.0,67,0.00,,,0.00,WUHU216HW,2013-01-25 17:10:00,
2013-01-25 11:15:00,28.1,18.5,30.38,North,0,0.0,0.0,67,0.00,,,0.00,WUHU216HW,2013-01-25 17:15:00,
2013-01-25 11:20:00,28.3,18.4,30.38,North,0,0.0,0.0,66,0.00,,,0.00,WUHU216HW,2013-01-25 17:20:00,
2013-01-25 11:25:00,28.1,18.2,30.38,North,0,0.0,0.0,66,0.00,,,0.00,WUHU216HW,2013-01-25 17:25:00,
2013-01-25 11:30:00,28.4,18.5,30.37,North,0,0.0,0.0,66,0.00,,,0.00,WUHU216HW,2013-01-25 17:30:00,
2013-01-25 11:35:00,28.8,18.9,30.36,North,0,0.0,0.0,66,0.00,,,0.00,WUHU216HW,2013-01-25 17:35:00,
2013-01-25 11:40:00,28.8,18.6,30.36,North,0,0.0,0.0,65,0.00,,,0.00,WUHU216HW,2013-01-25 17:40:00,
2013-01-25 11:45:00,28.8,18.6,30.36,North,0,0.0,0.0,65,0.00,,,0.00,WUHU216HW,2013-01-25 17:45:00,
2013-01-25 11:50:00,28.8,18.6,30.36,North,0,0.0,0.0,65,0.00,,,0.00,WUHU216HW,2013-01-25 17:50:00,
2013-01-25 11:55:00,29.2,18.5,30.35,North,0,0.0,0.0,64,0.00,,,0.00,WUHU216HW,2013-01-25 17:55:00,
2013-01-25 12:00:00,29.2,18.5,30.35,North,0,0.0,0.0,64,0.00,,,0.00,WUHU216HW,2013-01-25 18:00:00,
2013-01-25 12:05:00,29.2,18.5,30.34,North,0,0.0,0.0,64,0.00,,,0.00,WUHU216HW,2013-01-25 18:05:00,
2013-01-25 12:10:00,29.5,18.5,30.34,North,0,0.0,0.0,63,0.00,,,0.00,WUHU216HW,2013-01-25 18:10:00,
2013-01-25 12:15:00,29.7,18.6,30.34,North,0,0.0,0.0,63,0.00,,,0.00,WUHU216HW,2013-01-25 18:15:00,
2013-01-25 12:20:00,29.9,19.1,30.33,North,0,0.0,0.0,64,0.00,,,0.00,WUHU216HW,2013-01-25 18:20:00,
2013-01-25 12:25:00,30.4,19.6,30.33,North,0,0.0,0.0,64,0.00,,,0.00,WUHU216HW,2013-01-25 18:25:00,
2013-01-25 12:30:00,30.4,18.5,30.33,North,0,0.0,0.0,61,0.00,,,0.00,WUHU216HW,2013-01-25 18:30:00,
2013-01-25 12:35:00,30.8,18.9,30.32,North,0,0.0,0.0,61,0.00,,,0.00,WUHU216HW,2013-01-25 18:35:00,
2013-01-25 12:40:00,31.0,19.4,30.32,North,0,0.0,0.0,62,0.00,,,0.00,WUHU216HW,2013-01-25 18:40:00,
2013-01-25 12:45:00,31.0,19.1,30.32,North,0,0.0,0.0,61,0.00,,,0.00,WUHU216HW,2013-01-25 18:45:00,
2013-01-25 12:50:00,31.1,18.9,30.31,North,0,0.0,0.0,60,0.00,,,0.00,WUHU216HW,2013-01-25 18:50:00,
2013-01-25 12:55:00,31.3,18.3,30.31,North,0,0.0,0.0,58,0.00,,,0.00,WUHU216HW,2013-01-25 18:55:00,
2013-01-25 13:00:00,31.5,18.5,30.31,North,0,0.0,0.0,58,0.00,,,0.00,WUHU216HW,2013-01-25 19:00:00,
2013-01-25 13:05:00,31.7,19.4,30.31,North,0,0.0,0.0,60,0.00,,,0.00,WUHU216HW,2013-01-25 19:05:00,
2013-01-25 13:10:00,32.0,18.1,30.31,North,0,0.0,0.0,56,0.00,,,0.00,WUHU216HW,2013-01-25 19:10:00,
2013-01-25 13:15:00,32.0,18.9,30.32,North,0,0.0,0.0,58,0.00,,,0.00,WUHU216HW,2013-01-25 19:15:00,
2013-01-25 13:20:00,32.4,19.3,30.31,North,0,0.0,0.0,58,0.00,,,0.00,WUHU216HW,2013-01-25 19:20:00,
2013-01-25 13:25:00,32.6,19.0,30.31,North,0,0.0,0.0,57,0.00,,,0.00,WUHU216HW,2013-01-25 19:25:00,
2013-01-25 13:30:00,32.6,18.5,30.31,North,0,0.0,0.0,56,0.00,,,0.00,WUHU216HW,2013-01-25 19:30:00,
2013-01-25 13:35:00,32.8,19.2,30.31,North,0,0.0,0.0,57,0.00,,,0.00,WUHU216HW,2013-01-25 19:35:00,
2013-01-25 13:40:00,33.3,19.6,30.31,North,0,0.0,0.0,57,0.00,,,0.00,WUHU216HW,2013-01-25 19:40:00,
2013-01-25 13:45:00,33.5,19.4,30.31,North,0,0.0,0.0,56,0.00,,,0.00,WUHU216HW,2013-01-25 19:45:00,
2013-01-25 13:50:00,33.5,19.4,30.31,North,0,0.0,0.0,56,0.00,,,0.00,WUHU216HW,2013-01-25 19:50:00,
2013-01-25 13:55:00,33.7,19.5,30.31,North,0,0.0,0.0,56,0.00,,,0.00,WUHU216HW,2013-01-25 19:55:00,
2013-01-25 14:00:00,33.8,19.7,30.30,North,0,0.0,0.0,56,0.00,,,0.00,WUHU216HW,2013-01-25 20:00:00,
2013-01-25 14:05:00,34.0,19.0,30.31,North,0,0.0,0.0,54,0.00,,,0.00,WUHU216HW,2013-01-25 20:05:00,
2013-01-25 14:10:00,34.0,19.0,30.31,North,0,0.0,0.0,54,0.00,,,0.00,WUHU216HW,2013-01-25 20:10:00,
2013-01-25 14:15:00,34.2,18.7,30.31,North,0,0.0,0.0,53,0.00,,,0.00,WUHU216HW,2013-01-25 20:15:00,
2013-01-25 14:20:00,34.2,18.7,30.31,North,0,0.0,0.0,53,0.00,,,0.00,WUHU216HW,2013-01-25 20:20:00,
2013-01-25 14:25:00,34.2,19.2,30.31,North,0,0.0,0.0,54,0.00,,,0.00,WUHU216HW,2013-01-25 20:25:00,
2013-01-25 14:30:00,34.4,18.9,30.30,North,0,0.0,0.0,53,0.00,,,0.00,WUHU216HW,2013-01-25 20:30:00,
2013-01-25 14:35:00,34.4,18.9,30.30,North,0,0.0,0.0,53,0.00,,,0.00,WUHU216HW,2013-01-25 20:35:00,
2013-01-25 14:40:00,34.4,18.9,30.31,North,0,0.0,0.0,53,0.00,,,0.00,WUHU216HW,2013-01-25 20:40:00,
2013-01-25 14:45:00,34.6,19.1,30.31,North,0,0.0,0.0,53,0.00,,,0.00,WUHU216HW,2013-01-25 20:45:00,
2013-01-25 14:50:00,34.4,18.6,30.31,North,0,0.0,0.0,52,0.00,,,0.00,WUHU216HW,2013-01-25 20:50:00,
2013-01-25 14:55:00,34.2,18.7,30.31,North,0,0.0,0.0,53,0.00,,,0.00,WUHU216HW,2013-01-25 20:55:00,
2013-01-25 15:00:00,34.2,19.2,30.32,North,0,0.0,0.0,54,0.00,,,0.00,WUHU216HW,2013-01-25 21:00:00,
2013-01-25 15:05:00,34.2,19.6,30.32,North,0,0.0,0.0,55,0.00,,,0.00,WUHU216HW,2013-01-25 21:05:00,
2013-01-25 15:10:00,34.2,19.2,30.32,North,0,0.0,0.0,54,0.00,,,0.00,WUHU216HW,2013-01-25 21:10:00,
2013-01-25 15:15:00,34.0,19.4,30.32,North,0,0.0,0.0,55,0.00,,,0.00,WUHU216HW,2013-01-25 21:15:00,
2013-01-25 15:20:00,33.8,19.3,30.32,North,0,0.0,0.0,55,0.00,,,0.00,WUHU216HW,2013-01-25 21:20:00,
2013-01-25 15:25:00,33.7,19.5,30.33,North,0,0.0,0.0,56,0.00,,,0.00,WUHU216HW,2013-01-25 21:25:00,
2013-01-25 15:30:00,33.5,19.8,30.33,North,0,0.0,0.0,57,0.00,,,0.00,WUHU216HW,2013-01-25 21:30:00,
2013-01-25 15:35:00,33.3,19.6,30.32,North,0,0.0,0.0,57,0.00,,,0.00,WUHU216HW,2013-01-25 21:35:00,
2013-01-25 15:40:00,33.3,20.5,30.33,North,0,0.0,0.0,59,0.00,,,0.00,WUHU216HW,2013-01-25 21:40:00,
2013-01-25 15:45:00,33.1,20.8,30.33,North,0,0.0,0.0,60,0.00,,,0.00,WUHU216HW,2013-01-25 21:45:00,
2013-01-25 15:50:00,32.9,21.3,30.33,North,0,0.0,0.0,62,0.00,,,0.00,WUHU216HW,2013-01-25 21:50:00,
2013-01-25 15:55:00,32.8,21.2,30.34,North,0,0.0,0.0,62,0.00,,,0.00,WUHU216HW,2013-01-25 21:55:00,
2013-01-25 16:00:00,32.6,20.6,30.35,North,0,0.0,0.0,61,0.00,,,0.00,WUHU216HW,2013-01-25 22:00:00,
2013-01-25 16:05:00,32.2,20.7,30.35,North,0,0.0,0.0,62,0.00,,,0.00,WUHU216HW,2013-01-25 22:05:00,
2013-01-25 16:10:00,32.0,20.5,30.35,North,0,0.0,0.0,62,0.00,,,0.00,WUHU216HW,2013-01-25 22:10:00,
2013-01-25 16:15:00,31.9,20.3,30.36,North,0,0.0,0.0,62,0.00,,,0.00,WUHU216HW,2013-01-25 22:15:00,
2013-01-25 16:20:00,31.7,20.5,30.36,North,0,0.0,0.0,63,0.00,,,0.00,WUHU216HW,2013-01-25 22:20:00,
2013-01-25 16:25:00,31.3,19.8,30.36,North,0,0.0,0.0,62,0.00,,,0.00,WUHU216HW,2013-01-25 22:25:00,
2013-01-25 16:30:00,31.1,20.0,30.36,North,0,0.0,0.0,63,0.00,,,0.00,WUHU216HW,2013-01-25 22:30:00,
2013-01-25 16:35:00,31.0,19.8,30.36,North,0,0.0,0.0,63,0.00,,,0.00,WUHU216HW,2013-01-25 22:35:00,
2013-01-25 16:40:00,30.6,19.8,30.35,North,0,0.0,0.0,64,0.00,,,0.00,WUHU216HW,2013-01-25 22:40:00,
2013-01-25 16:45:00,30.4,19.6,30.36,North,0,0.0,0.0,64,0.00,,,0.00,WUHU216HW,2013-01-25 22:45:00,
2013-01-25 16:50:00,30.2,19.4,30.36,North,0,0.0,0.0,64,0.00,,,0.00,WUHU216HW,2013-01-25 22:50:00,
2013-01-25 16:55:00,29.9,19.4,30.36,North,0,0.0,0.0,65,0.00,,,0.00,WUHU216HW,2013-01-25 22:55:00,
2013-01-25 17:00:00,29.7,19.7,30.37,North,0,0.0,0.0,66,0.00,,,0.00,WUHU216HW,2013-01-25 23:00:00,
2013-01-25 17:05:00,29.5,19.5,30.37,North,0,0.0,0.0,66,0.00,,,0.00,WUHU216HW,2013-01-25 23:05:00,
2013-01-25 17:10:00,29.3,19.4,30.37,North,0,0.0,0.0,66,0.00,,,0.00,WUHU216HW,2013-01-25 23:10:00,
2013-01-25 17:15:00,29.2,19.2,30.37,North,0,0.0,0.0,66,0.00,,,0.00,WUHU216HW,2013-01-25 23:15:00,
2013-01-25 17:20:00,29.2,19.2,30.37,North,0,0.0,0.0,66,0.00,,,0.00,WUHU216HW,2013-01-25 23:20:00,
2013-01-25 17:25:00,29.0,19.0,30.36,North,0,0.0,0.0,66,0.00,,,0.00,WUHU216HW,2013-01-25 23:25:00,
2013-01-25 17:30:00,28.8,18.9,30.37,North,0,0.0,0.0,66,0.00,,,0.00,WUHU216HW,2013-01-25 23:30:00,
2013-01-25 17:35:00,28.6,18.7,30.37,North,0,0.0,0.0,66,0.00,,,0.00,WUHU216HW,2013-01-25 23:35:00,
2013-01-25 17:40:00,28.6,19.1,30.37,North,0,0.0,0.0,67,0.00,,,0.00,WUHU216HW,2013-01-25 23:40:00,
2013-01-25 17:45:00,28.4,18.9,30.37,North,0,0.0,0.0,67,0.00,,,0.00,WUHU216HW,2013-01-25 23:45:00,
2013-01-25 17:50:00,28.3,18.7,30.38,North,0,0.0,0.0,67,0.00,,,0.00,WUHU216HW,2013-01-25 23:50:00,
2013-01-25 17:55:00,28.1,18.9,30.38,North,0,0.0,0.0,68,0.00,,,0.00,WUHU216HW,2013-01-25 23:55:00,
2013-01-25 18:00:00,28.1,19.3,30.38,North,0,0.0,0.0,69,0.00,,,0.00,WUHU216HW,2013-01-26 00:00:00,
2013-01-25 18:05:00,28.3,19.1,30.39,North,0,0.0,0.0,68,0.00,,,0.00,WUHU216HW,2013-01-26 00:05:00,
2013-01-25 18:10:00,28.3,19.1,30.39,North,0,0.0,0.0,68,0.00,,,0.00,WUHU216HW,2013-01-26 00:10:00,
2013-01-25 18:15:00,28.4,18.9,30.40,North,0,0.0,0.0,67,0.00,,,0.00,WUHU216HW,2013-01-26 00:15:00,
2013-01-25 18:20:00,28.4,18.9,30.40,North,0,0.0,0.0,67,0.00,,,0.00,WUHU216HW,2013-01-26 00:20:00,
2013-01-25 18:25:00,28.3,18.0,30.40,North,0,0.0,0.0,65,0.00,,,0.00,WUHU216HW,2013-01-26 00:25:00,
2013-01-25 18:30:00,28.1,17.1,30.40,North,0,0.0,0.0,63,0.00,,,0.00,WUHU216HW,2013-01-26 00:30:00,
2013-01-25 18:35:00,27.9,16.9,30.41,North,0,0.0,0.0,63,0.00,,,0.00,WUHU216HW,2013-01-26 00:35:00,
2013-01-25 18:40:00,27.7,16.4,30.42,North,0,0.0,0.0,62,0.00,,,0.00,WUHU216HW,2013-01-26 00:40:00,
2013-01-25 18:45:00,27.4,15.7,30.42,North,0,0.0,0.0,61,0.00,,,0.00,WUHU216HW,2013-01-26 00:45:00,
2013-01-25 18:50:00,27.0,14.9,30.43,North,0,0.0,0.0,60,0.00,,,0.00,WUHU216HW,2013-01-26 00:50:00,
2013-01-25 18:55:00,26.8,14.8,30.43,North,0,0.0,0.0,60,0.00,,,0.00,WUHU216HW,2013-01-26 00:55:00,
2013-01-25 19:00:00,26.3,13.1,30.43,North,0,0.0,0.0,57,0.00,,,0.00,WUHU216HW,2013-01-26 01:00:00,
2013-01-25 19:05:00,26.1,12.4,30.43,North,0,0.0,0.0,56,0.00,,,0.00,WUHU216HW,2013-01-26 01:05:00,
2013-01-25 19:10:00,25.9,11.9,30.43,North,0,0.0,0.0,55,0.00,,,0.00,WUHU216HW,2013-01-26 01:10:00,
2013-01-25 19:15:00,25.6,10.7,30.44,North,0,0.0,0.0,53,0.00,,,0.00,WUHU216HW,2013-01-26 01:15:00,
2013-01-25 19:20:00,25.2,10.4,30.44,North,0,0.0,0.0,53,0.00,,,0.00,WUHU216HW,2013-01-26 01:20:00,
2013-01-25 19:25:00,25.0,9.8,30.44,North,0,0.0,0.0,52,0.00,,,0.00,WUHU216HW,2013-01-26 01:25:00,
2013-01-25 19:30:00,24.8,10.4,30.45,North,0,0.0,0.0,54,0.00,,,0.00,WUHU216HW,2013-01-26 01:30:00,
2013-01-25 19:35:00,24.5,10.5,30.45,North,0,0.0,0.0,55,0.00,,,0.00,WUHU216HW,2013-01-26 01:35:00,
2013-01-25 19:40:00,24.1,9.8,30.45,North,0,0.0,0.0,54,0.00,,,0.00,WUHU216HW,2013-01-26 01:40:00,
2013-01-25 19:45:00,23.8,9.9,30.45,North,0,0.0,0.0,55,0.00,,,0.00,WUHU216HW,2013-01-26 01:45:00,
2013-01-25 19:50:00,23.4,8.7,30.45,North,0,0.0,0.0,53,0.00,,,0.00,WUHU216HW,2013-01-26 01:50:00,
2013-01-25 19:52:00,23.4,9.1,30.45,North,0,0.0,0.0,54,0.00,,,0.00,WUHU216HW,2013-01-26 01:52:00,
2013-01-25 19:55:00,23.2,8.9,30.45,North,0,0.0,0.0,54,0.00,,,0.00,WUHU216HW,2013-01-26 01:55:00,
2013-01-25 20:00:00,22.9,9.0,30.45,North,0,0.0,0.0,55,0.00,,,0.00,WUHU216HW,2013-01-26 02:00:00,
2013-01-25 20:05:00,22.7,8.8,30.46,North,0,0.0,0.0,55,0.00,,,0.00,WUHU216HW,2013-01-26 02:05:00,
2013-01-25 20:10:00,22.5,8.6,30.46,North,0,0.0,0.0,55,0.00,,,0.00,WUHU216HW,2013-01-26 02:10:00,
2013-01-25 20:15:00,22.5,8.6,30.46,North,0,0.0,0.0,55,0.00,,,0.00,WUHU216HW,2013-01-26 02:15:00,
2013-01-25 20:29:00,21.6,7.8,30.46,North,0,0.0,0.0,55,0.00,,,0.00,WUHU216HW,2013-01-26 02:29:00,
2013-01-25 20:34:00,21.6,7.8,30.46,North,0,0.0,0.0,55,0.00,,,0.00,WUHU216HW,2013-01-26 02:34:00,
2013-01-25 20:39:00,21.4,7.7,30.46,North,0,0.0,0.0,55,0.00,,,0.00,WUHU216HW,2013-01-26 02:39:00,
2013-01-25 20:44:00,21.4,7.7,30.46,North,0,0.0,0.0,55,0.00,,,0.00,WUHU216HW,2013-01-26 02:44:00,